UAE545 VOMM-OMDB
Flight info
| Callsign | UAE545 |
|---|---|
| Flight time | 1h 20m |
| Altitude | 34000 |
| Route | GULAM2A GULAM P574 PAROK Q899 ITURA M762 VAXAS/N0411F240 M762 MIVEK P574 IMPED |
| Aircraft | B77W/H-SDE1E2E3FGHIJ2J3J4J5M1RWXY/LB1D1 |
Departure
| Time | 2026-04-21 10:13 |
|---|---|
| Airport | Chennai International Airport (VOMM) |
Arrival
| Time | 2026-04-21 11:33 |
|---|---|
| Airport | Dubai International Airport (OMDB) |
| Time | Latitude | Longitude | Altitude | Speed | Heading |
|---|---|---|---|---|---|
| 2026-04-21 10:08 | 12.98342 | 80.16080 | 51 ft | 0 kts | 247° |
| 2026-04-21 10:10 | 12.98342 | 80.16079 | 51 ft | 0 kts | 247° |
| 2026-04-21 10:10 | 12.98313 | 80.16010 | 50 ft | 23 kts | 247° |
| 2026-04-21 10:10 | 12.98325 | 80.15784 | 55 ft | 41 kts | 288° |
| 2026-04-21 10:10 | 12.98358 | 80.15671 | 52 ft | 32 kts | 285° |
| 2026-04-21 10:11 | 12.98382 | 80.15575 | 55 ft | 0 kts | 284° |
| 2026-04-21 10:11 | 12.98384 | 80.15567 | 56 ft | 7 kts | 284° |
| 2026-04-21 10:11 | 12.98409 | 80.15478 | 52 ft | 13 kts | 299° |
| 2026-04-21 10:12 | 12.98483 | 80.15482 | 52 ft | 13 kts | 63° |
| 2026-04-21 10:12 | 12.98520 | 80.15573 | 52 ft | 21 kts | 68° |
| 2026-04-21 10:12 | 12.98699 | 80.16050 | 53 ft | 127 kts | 69° |
| 2026-04-21 10:12 | 12.99120 | 80.17186 | 224 ft | 197 kts | 69° |
| 2026-04-21 10:13 | 12.99809 | 80.18515 | 734 ft | 224 kts | 35° |
| 2026-04-21 10:13 | 13.01227 | 80.18768 | 1597 ft | 209 kts | 340° |
| 2026-04-21 10:13 | 13.02530 | 80.18107 | 2077 ft | 216 kts | 336° |
| 2026-04-21 10:13 | 13.04011 | 80.17539 | 2257 ft | 238 kts | 329° |
| 2026-04-21 10:14 | 13.05162 | 80.16270 | 2662 ft | 251 kts | 298° |
| 2026-04-21 10:14 | 13.05985 | 80.14655 | 3318 ft | 259 kts | 297° |
| 2026-04-21 10:14 | 13.06827 | 80.13004 | 4153 ft | 262 kts | 297° |
| 2026-04-21 10:14 | 13.07665 | 80.11360 | 5010 ft | 265 kts | 297° |
| 2026-04-21 10:15 | 13.08537 | 80.09660 | 5848 ft | 268 kts | 297° |
| 2026-04-21 10:15 | 13.09397 | 80.07982 | 6630 ft | 271 kts | 297° |
| 2026-04-21 10:15 | 13.10279 | 80.06266 | 7403 ft | 274 kts | 297° |
| 2026-04-21 10:15 | 13.11198 | 80.04474 | 7567 ft | 287 kts | 300° |
| 2026-04-21 10:16 | 13.12136 | 80.02649 | 8061 ft | 297 kts | 300° |
| 2026-04-21 10:16 | 13.15016 | 79.97025 | 10116 ft | 307 kts | 300° |
| 2026-04-21 10:16 | 13.16047 | 79.95020 | 10346 ft | 330 kts | 300° |
| 2026-04-21 10:16 | 13.17160 | 79.92862 | 10532 ft | 354 kts | 300° |
| 2026-04-21 10:17 | 13.18346 | 79.90557 | 10700 ft | 376 kts | 300° |
| 2026-04-21 10:17 | 13.20250 | 79.86846 | 11473 ft | 392 kts | 299° |
| 2026-04-21 10:17 | 13.26755 | 79.74139 | 12479 ft | 399 kts | 299° |
| 2026-04-21 10:17 | 13.37123 | 79.53856 | 12918 ft | 401 kts | 299° |
| 2026-04-21 10:18 | 13.47577 | 79.33343 | 12756 ft | 406 kts | 299° |
| 2026-04-21 10:18 | 13.57679 | 79.13492 | 12641 ft | 390 kts | 299° |
| 2026-04-21 10:18 | 13.63120 | 79.02787 | 13375 ft | 413 kts | 299° |
| 2026-04-21 10:18 | 13.67982 | 78.93219 | 16577 ft | 411 kts | 298° |
| 2026-04-21 10:19 | 13.78875 | 78.71747 | 21815 ft | 435 kts | 295° |
| 2026-04-21 10:19 | 13.86394 | 78.56812 | 24448 ft | 457 kts | 295° |
| 2026-04-21 10:19 | 13.87861 | 78.53895 | 24563 ft | 461 kts | 295° |
| 2026-04-21 10:19 | 13.89333 | 78.50967 | 24689 ft | 460 kts | 295° |
| 2026-04-21 10:20 | 13.90807 | 78.48035 | 24816 ft | 462 kts | 295° |
| 2026-04-21 10:20 | 13.92283 | 78.45102 | 24946 ft | 462 kts | 295° |
| 2026-04-21 10:20 | 13.93763 | 78.42162 | 25074 ft | 463 kts | 295° |
| 2026-04-21 10:20 | 13.95246 | 78.39216 | 25202 ft | 463 kts | 294° |
| 2026-04-21 10:21 | 13.96730 | 78.36269 | 25329 ft | 465 kts | 294° |
| 2026-04-21 10:21 | 13.98224 | 78.33301 | 25676 ft | 468 kts | 294° |
| 2026-04-21 10:21 | 13.99723 | 78.30321 | 25807 ft | 469 kts | 294° |
| 2026-04-21 10:21 | 14.01223 | 78.27338 | 25862 ft | 470 kts | 294° |
| 2026-04-21 10:22 | 14.02731 | 78.24338 | 26303 ft | 472 kts | 294° |
| 2026-04-21 10:22 | 14.04239 | 78.21338 | 26841 ft | 472 kts | 294° |
| 2026-04-21 10:22 | 14.05748 | 78.18334 | 27345 ft | 473 kts | 294° |
| 2026-04-21 10:22 | 14.07259 | 78.15322 | 27778 ft | 475 kts | 294° |
| 2026-04-21 10:23 | 14.08783 | 78.12284 | 28156 ft | 479 kts | 293° |
| 2026-04-21 10:23 | 14.10315 | 78.09230 | 28537 ft | 481 kts | 293° |
| 2026-04-21 10:23 | 14.11855 | 78.06158 | 28926 ft | 483 kts | 293° |
| 2026-04-21 10:23 | 14.13382 | 78.03112 | 29305 ft | 485 kts | 293° |
| 2026-04-21 10:24 | 14.14932 | 78.00019 | 29678 ft | 487 kts | 293° |
| 2026-04-21 10:24 | 14.16482 | 77.96926 | 30122 ft | 485 kts | 293° |
| 2026-04-21 10:24 | 14.18029 | 77.93840 | 30595 ft | 483 kts | 292° |
| 2026-04-21 10:24 | 14.19568 | 77.90768 | 31031 ft | 482 kts | 292° |
| 2026-04-21 10:25 | 14.21104 | 77.87699 | 31416 ft | 482 kts | 292° |
| 2026-04-21 10:25 | 14.22635 | 77.84637 | 31814 ft | 481 kts | 292° |
| 2026-04-21 10:25 | 14.24169 | 77.81571 | 32209 ft | 481 kts | 292° |
| 2026-04-21 10:25 | 14.25701 | 77.78505 | 32608 ft | 480 kts | 292° |
| 2026-04-21 10:26 | 14.27229 | 77.75445 | 32996 ft | 479 kts | 291° |
| 2026-04-21 10:26 | 14.28754 | 77.72391 | 33389 ft | 479 kts | 291° |
| 2026-04-21 10:26 | 14.30278 | 77.69338 | 33759 ft | 478 kts | 291° |
| 2026-04-21 10:26 | 14.31798 | 77.66291 | 34082 ft | 477 kts | 291° |
| 2026-04-21 10:27 | 14.33382 | 77.63114 | 34412 ft | 477 kts | 291° |
| 2026-04-21 10:27 | 14.34893 | 77.60085 | 34751 ft | 476 kts | 291° |
| 2026-04-21 10:27 | 14.36406 | 77.57049 | 35070 ft | 475 kts | 291° |
| 2026-04-21 10:27 | 14.37913 | 77.54024 | 35370 ft | 474 kts | 291° |
| 2026-04-21 10:28 | 14.39418 | 77.51003 | 35681 ft | 473 kts | 291° |
| 2026-04-21 10:28 | 14.47492 | 77.34753 | 35876 ft | 485 kts | 291° |
| 2026-04-21 10:28 | 14.53091 | 77.23518 | 35703 ft | 469 kts | 291° |
| 2026-04-21 10:29 | 14.57154 | 77.15312 | 35824 ft | 465 kts | 290° |
| 2026-04-21 10:29 | 14.77677 | 76.73763 | 35927 ft | 473 kts | 290° |
| 2026-04-21 10:29 | 14.83002 | 76.62948 | 35826 ft | 479 kts | 290° |
| 2026-04-21 10:30 | 14.95060 | 76.38429 | 35804 ft | 475 kts | 290° |
| 2026-04-21 10:30 | 15.12205 | 76.03378 | 35766 ft | 461 kts | 289° |
| 2026-04-21 10:30 | 15.23489 | 75.81551 | 35913 ft | 469 kts | 291° |
| 2026-04-21 10:31 | 15.28108 | 75.72824 | 35873 ft | 473 kts | 291° |
| 2026-04-21 10:31 | 15.52416 | 75.26215 | 35786 ft | 475 kts | 291° |
| 2026-04-21 10:32 | 15.77014 | 74.78746 | 35876 ft | 463 kts | 291° |
| 2026-04-21 10:32 | 15.88776 | 74.55773 | 35993 ft | 468 kts | 289° |
| 2026-04-21 10:32 | 15.95867 | 74.40985 | 35994 ft | 476 kts | 289° |
| 2026-04-21 10:32 | 16.04004 | 74.24163 | 35869 ft | 482 kts | 289° |
| 2026-04-21 10:33 | 16.15994 | 73.99352 | 35788 ft | 476 kts | 289° |
| 2026-04-21 10:33 | 16.38528 | 73.52648 | 35755 ft | 461 kts | 289° |
| 2026-04-21 10:34 | 16.57461 | 73.14519 | 35890 ft | 473 kts | 289° |
| 2026-04-21 10:34 | 16.65096 | 72.98727 | 35774 ft | 476 kts | 288° |
| 2026-04-21 10:34 | 16.76767 | 72.74024 | 35753 ft | 472 kts | 289° |
| 2026-04-21 10:35 | 16.99522 | 72.25808 | 35748 ft | 458 kts | 288° |
| 2026-04-21 10:35 | 17.10423 | 72.02593 | 35857 ft | 465 kts | 289° |
| 2026-04-21 10:35 | 17.15304 | 71.92436 | 35884 ft | 471 kts | 290° |
| 2026-04-21 10:35 | 17.24190 | 71.73998 | 35777 ft | 474 kts | 290° |
| 2026-04-21 10:36 | 17.35695 | 71.49888 | 35716 ft | 469 kts | 291° |
| 2026-04-21 10:36 | 17.58739 | 71.01626 | 35868 ft | 471 kts | 292° |
| 2026-04-21 10:37 | 17.72624 | 70.72348 | 35797 ft | 483 kts | 293° |
| 2026-04-21 10:37 | 17.89269 | 70.37005 | 35751 ft | 470 kts | 294° |
| 2026-04-21 10:37 | 17.99387 | 70.15376 | 35867 ft | 469 kts | 294° |
| 2026-04-21 10:38 | 18.09587 | 69.93498 | 35934 ft | 478 kts | 294° |
| 2026-04-21 10:38 | 18.25446 | 69.59332 | 35797 ft | 482 kts | 294° |
| 2026-04-21 10:39 | 18.39697 | 69.28486 | 35848 ft | 469 kts | 296° |
| 2026-04-21 10:39 | 18.61025 | 68.86994 | 35951 ft | 485 kts | 298° |
| 2026-04-21 10:39 | 18.68294 | 68.72731 | 35835 ft | 491 kts | 298° |
| 2026-04-21 10:40 | 18.81174 | 68.47371 | 35777 ft | 486 kts | 299° |
| 2026-04-21 10:40 | 18.97746 | 68.14601 | 35875 ft | 477 kts | 300° |
| 2026-04-21 10:41 | 19.18602 | 67.73790 | 35952 ft | 489 kts | 300° |
| 2026-04-21 10:41 | 19.28502 | 67.54476 | 35826 ft | 493 kts | 300° |
| 2026-04-21 10:41 | 19.41481 | 67.29074 | 35783 ft | 486 kts | 300° |
| 2026-04-21 10:42 | 19.59169 | 66.94271 | 35880 ft | 475 kts | 300° |
| 2026-04-21 10:42 | 19.84343 | 66.44382 | 35950 ft | 488 kts | 299° |
| 2026-04-21 10:43 | 20.09681 | 65.93714 | 35767 ft | 477 kts | 298° |
| 2026-04-21 10:43 | 20.25729 | 65.61391 | 35909 ft | 472 kts | 298° |
| 2026-04-21 10:44 | 20.42310 | 65.27796 | 35916 ft | 483 kts | 298° |
| 2026-04-21 10:44 | 20.54421 | 65.03128 | 35786 ft | 477 kts | 298° |
| 2026-04-21 10:44 | 20.62299 | 64.87249 | 35766 ft | 468 kts | 298° |
| 2026-04-21 10:44 | 20.71720 | 64.68437 | 35897 ft | 463 kts | 298° |
| 2026-04-21 10:45 | 20.83875 | 64.43943 | 35949 ft | 471 kts | 298° |
| 2026-04-21 10:45 | 20.99239 | 64.12845 | 35809 ft | 475 kts | 297° |
| 2026-04-21 10:46 | 21.15124 | 63.80489 | 35853 ft | 460 kts | 297° |
| 2026-04-21 10:46 | 21.37717 | 63.34153 | 35952 ft | 473 kts | 297° |
| 2026-04-21 10:46 | 21.48095 | 63.12727 | 35850 ft | 475 kts | 297° |
| 2026-04-21 10:47 | 21.60004 | 62.88037 | 35760 ft | 465 kts | 297° |
| 2026-04-21 10:47 | 21.83375 | 62.39234 | 35915 ft | 461 kts | 297° |
| 2026-04-21 10:48 | 22.03966 | 61.89588 | 35823 ft | 463 kts | 295° |
| 2026-04-21 10:48 | 22.13630 | 61.66009 | 35744 ft | 451 kts | 295° |
| 2026-04-21 10:48 | 22.17048 | 61.57633 | 35837 ft | 447 kts | 295° |
| 2026-04-21 10:49 | 22.35149 | 61.13043 | 35934 ft | 461 kts | 295° |
| 2026-04-21 10:49 | 22.40354 | 61.00153 | 35816 ft | 463 kts | 295° |
| 2026-04-21 10:49 | 22.50532 | 60.74818 | 35742 ft | 454 kts | 295° |
| 2026-04-21 10:50 | 22.66555 | 60.34718 | 35802 ft | 444 kts | 295° |
| 2026-04-21 10:50 | 22.85926 | 59.85811 | 35873 ft | 457 kts | 295° |
| 2026-04-21 10:50 | 22.95833 | 59.60556 | 35762 ft | 451 kts | 295° |
| 2026-04-21 10:51 | 23.05149 | 59.36666 | 35704 ft | 441 kts | 295° |
| 2026-04-21 10:51 | 23.23019 | 58.82004 | 35874 ft | 453 kts | 287° |
| 2026-04-21 10:52 | 23.32061 | 58.44593 | 35750 ft | 449 kts | 287° |
| 2026-04-21 10:52 | 23.33825 | 58.37216 | 35780 ft | 443 kts | 287° |
| 2026-04-21 10:53 | 23.35364 | 58.30787 | 35773 ft | 441 kts | 287° |
| 2026-04-21 10:53 | 23.36906 | 58.24342 | 35780 ft | 440 kts | 287° |
| 2026-04-21 10:54 | 23.38445 | 58.17899 | 35784 ft | 440 kts | 287° |
| 2026-04-21 10:54 | 23.40647 | 58.11714 | 35787 ft | 438 kts | 298° |
| 2026-04-21 10:55 | 23.43744 | 58.06025 | 35796 ft | 437 kts | 306° |
| 2026-04-21 10:55 | 23.47306 | 58.00643 | 35800 ft | 438 kts | 306° |
| 2026-04-21 10:56 | 23.50879 | 57.95253 | 35807 ft | 439 kts | 306° |
| 2026-04-21 10:56 | 23.54414 | 57.89843 | 35813 ft | 438 kts | 306° |
| 2026-04-21 10:57 | 23.57917 | 57.84466 | 35822 ft | 437 kts | 306° |
| 2026-04-21 10:57 | 23.68833 | 57.69066 | 35810 ft | 434 kts | 308° |
| 2026-04-21 10:58 | 23.97901 | 57.28240 | 35816 ft | 431 kts | 307° |
| 2026-04-21 10:58 | 24.03381 | 57.20502 | 35677 ft | 433 kts | 306° |
| 2026-04-21 10:58 | 24.05242 | 57.17870 | 35317 ft | 442 kts | 306° |
| 2026-04-21 10:59 | 24.07144 | 57.15179 | 34843 ft | 452 kts | 306° |
| 2026-04-21 10:59 | 24.09091 | 57.12424 | 34330 ft | 463 kts | 306° |
| 2026-04-21 10:59 | 24.11085 | 57.09602 | 33779 ft | 474 kts | 306° |
| 2026-04-21 10:59 | 24.13125 | 57.06713 | 33149 ft | 484 kts | 306° |
| 2026-04-21 11:00 | 24.15203 | 57.03769 | 32586 ft | 492 kts | 306° |
| 2026-04-21 11:00 | 24.17307 | 57.00789 | 32180 ft | 495 kts | 306° |
| 2026-04-21 11:00 | 24.19402 | 56.97822 | 31513 ft | 491 kts | 306° |
| 2026-04-21 11:00 | 24.21474 | 56.94885 | 31113 ft | 480 kts | 306° |
| 2026-04-21 11:01 | 24.23480 | 56.92035 | 30921 ft | 466 kts | 306° |
| 2026-04-21 11:01 | 24.25428 | 56.89261 | 30808 ft | 451 kts | 306° |
| 2026-04-21 11:01 | 24.27281 | 56.86619 | 30795 ft | 435 kts | 306° |
| 2026-04-21 11:02 | 24.30846 | 56.81527 | 30673 ft | 410 kts | 305° |
| 2026-04-21 11:02 | 24.32566 | 56.79065 | 30326 ft | 405 kts | 305° |
| 2026-04-21 11:02 | 24.34277 | 56.76615 | 29794 ft | 405 kts | 305° |
| 2026-04-21 11:02 | 24.35993 | 56.74159 | 29281 ft | 405 kts | 305° |
| 2026-04-21 11:03 | 24.37696 | 56.71718 | 28836 ft | 401 kts | 305° |
| 2026-04-21 11:03 | 24.39387 | 56.69298 | 28418 ft | 398 kts | 305° |
| 2026-04-21 11:03 | 24.41059 | 56.66904 | 28007 ft | 394 kts | 305° |
| 2026-04-21 11:03 | 24.42717 | 56.64528 | 27591 ft | 391 kts | 305° |
| 2026-04-21 11:04 | 24.44449 | 56.62237 | 27169 ft | 389 kts | 310° |
| 2026-04-21 11:04 | 24.46288 | 56.60075 | 26760 ft | 386 kts | 310° |
| 2026-04-21 11:04 | 24.48112 | 56.57972 | 26199 ft | 376 kts | 310° |
| 2026-04-21 11:04 | 24.49910 | 56.55901 | 25416 ft | 373 kts | 310° |
| 2026-04-21 11:05 | 24.51690 | 56.53843 | 24626 ft | 371 kts | 310° |
| 2026-04-21 11:05 | 24.53452 | 56.51796 | 23919 ft | 367 kts | 309° |
| 2026-04-21 11:05 | 24.55192 | 56.49769 | 23240 ft | 361 kts | 309° |
| 2026-04-21 11:05 | 24.56903 | 56.47771 | 22465 ft | 357 kts | 309° |
| 2026-04-21 11:06 | 24.58594 | 56.45794 | 21637 ft | 354 kts | 309° |
| 2026-04-21 11:06 | 24.60276 | 56.43825 | 20810 ft | 353 kts | 310° |
| 2026-04-21 11:06 | 24.61953 | 56.41861 | 20009 ft | 351 kts | 310° |
| 2026-04-21 11:06 | 24.63620 | 56.39908 | 19249 ft | 349 kts | 310° |
| 2026-04-21 11:07 | 24.65266 | 56.37981 | 18768 ft | 340 kts | 310° |
| 2026-04-21 11:07 | 24.66884 | 56.36086 | 18348 ft | 341 kts | 310° |
| 2026-04-21 11:07 | 24.68508 | 56.34181 | 17889 ft | 342 kts | 311° |
| 2026-04-21 11:07 | 24.70136 | 56.32282 | 17433 ft | 339 kts | 313° |
| 2026-04-21 11:08 | 24.71944 | 56.30681 | 17009 ft | 340 kts | 326° |
| 2026-04-21 11:08 | 24.74052 | 56.29492 | 16601 ft | 340 kts | 338° |
| 2026-04-21 11:08 | 24.76318 | 56.28752 | 16204 ft | 339 kts | 343° |
| 2026-04-21 11:08 | 24.78593 | 56.28115 | 15919 ft | 335 kts | 343° |
| 2026-04-21 11:09 | 24.80842 | 56.27475 | 15548 ft | 333 kts | 343° |
| 2026-04-21 11:09 | 24.83074 | 56.26818 | 15169 ft | 332 kts | 343° |
| 2026-04-21 11:09 | 24.85309 | 56.26148 | 14768 ft | 331 kts | 341° |
| 2026-04-21 11:09 | 24.87353 | 56.25080 | 14367 ft | 324 kts | 321° |
| 2026-04-21 11:10 | 24.88915 | 56.23325 | 14056 ft | 318 kts | 302° |
| 2026-04-21 11:10 | 24.89864 | 56.21567 | 14007 ft | 314 kts | 297° |
| 2026-04-21 11:10 | 24.90654 | 56.19981 | 14011 ft | 319 kts | 297° |
| 2026-04-21 11:10 | 24.91719 | 56.17824 | 13832 ft | 322 kts | 297° |
| 2026-04-21 11:11 | 24.92798 | 56.15658 | 13455 ft | 323 kts | 297° |
| 2026-04-21 11:11 | 24.93887 | 56.13501 | 13106 ft | 321 kts | 297° |
| 2026-04-21 11:11 | 24.94958 | 56.11395 | 12765 ft | 317 kts | 297° |
| 2026-04-21 11:11 | 24.96049 | 56.09254 | 12409 ft | 315 kts | 297° |
| 2026-04-21 11:12 | 24.97107 | 56.07181 | 12068 ft | 313 kts | 297° |
| 2026-04-21 11:12 | 24.98034 | 56.05024 | 11676 ft | 311 kts | 290° |
| 2026-04-21 11:12 | 24.98790 | 56.02800 | 11340 ft | 308 kts | 288° |
| 2026-04-21 11:12 | 24.99493 | 56.00607 | 11241 ft | 298 kts | 288° |
| 2026-04-21 11:13 | 25.00174 | 55.98487 | 11122 ft | 289 kts | 288° |
| 2026-04-21 11:13 | 25.00841 | 55.96429 | 10969 ft | 281 kts | 288° |
| 2026-04-21 11:13 | 25.01501 | 55.94416 | 10717 ft | 278 kts | 288° |
| 2026-04-21 11:13 | 25.02163 | 55.92419 | 10404 ft | 277 kts | 288° |
| 2026-04-21 11:14 | 25.02823 | 55.90431 | 10093 ft | 276 kts | 288° |
| 2026-04-21 11:14 | 25.03485 | 55.88441 | 9809 ft | 275 kts | 289° |
| 2026-04-21 11:14 | 25.04144 | 55.86464 | 9518 ft | 274 kts | 289° |
| 2026-04-21 11:14 | 25.04792 | 55.84524 | 9199 ft | 273 kts | 289° |
| 2026-04-21 11:15 | 25.05447 | 55.82566 | 8895 ft | 272 kts | 289° |
| 2026-04-21 11:15 | 25.06102 | 55.80611 | 8569 ft | 271 kts | 289° |
| 2026-04-21 11:15 | 25.06753 | 55.78664 | 8246 ft | 271 kts | 289° |
| 2026-04-21 11:15 | 25.07407 | 55.76709 | 7916 ft | 271 kts | 289° |
| 2026-04-21 11:16 | 25.08059 | 55.74758 | 7591 ft | 271 kts | 289° |
| 2026-04-21 11:16 | 25.08711 | 55.72809 | 7284 ft | 271 kts | 289° |
| 2026-04-21 11:16 | 25.09363 | 55.70856 | 6965 ft | 271 kts | 289° |
| 2026-04-21 11:16 | 25.10014 | 55.68906 | 6648 ft | 271 kts | 289° |
| 2026-04-21 11:17 | 25.10666 | 55.66951 | 6324 ft | 271 kts | 289° |
| 2026-04-21 11:17 | 25.11319 | 55.64996 | 5999 ft | 272 kts | 289° |
| 2026-04-21 11:17 | 25.11971 | 55.63042 | 5694 ft | 270 kts | 289° |
| 2026-04-21 11:17 | 25.12617 | 55.61101 | 5432 ft | 268 kts | 289° |
| 2026-04-21 11:18 | 25.13253 | 55.59192 | 5247 ft | 258 kts | 289° |
| 2026-04-21 11:18 | 25.13849 | 55.57404 | 5094 ft | 237 kts | 289° |
| 2026-04-21 11:18 | 25.14458 | 55.55794 | 4849 ft | 220 kts | 298° |
| 2026-04-21 11:18 | 25.15227 | 55.54406 | 4569 ft | 204 kts | 302° |
| 2026-04-21 11:19 | 25.15956 | 55.53147 | 4262 ft | 192 kts | 302° |
| 2026-04-21 11:19 | 25.16667 | 55.51902 | 3760 ft | 193 kts | 302° |
| 2026-04-21 11:19 | 25.17385 | 55.50632 | 3143 ft | 197 kts | 304° |
| 2026-04-21 11:19 | 25.18101 | 55.49352 | 2552 ft | 192 kts | 305° |
| 2026-04-21 11:20 | 25.18789 | 55.48128 | 2399 ft | 183 kts | 304° |
| 2026-04-21 11:20 | 25.19438 | 55.46963 | 2248 ft | 175 kts | 305° |
| 2026-04-21 11:20 | 25.20053 | 55.45796 | 2103 ft | 176 kts | 302° |
| 2026-04-21 11:20 | 25.20317 | 55.44490 | 2016 ft | 183 kts | 261° |
| 2026-04-21 11:21 | 25.19604 | 55.43332 | 2009 ft | 189 kts | 216° |
| 2026-04-21 11:21 | 25.18394 | 55.42956 | 1988 ft | 178 kts | 174° |
| 2026-04-21 11:21 | 25.17305 | 55.43443 | 2000 ft | 166 kts | 137° |
| 2026-04-21 11:21 | 25.16806 | 55.44488 | 1987 ft | 152 kts | 79° |
| 2026-04-21 11:22 | 25.17355 | 55.45363 | 2014 ft | 144 kts | 19° |
| 2026-04-21 11:22 | 25.18312 | 55.45235 | 2038 ft | 144 kts | 338° |
| 2026-04-21 11:22 | 25.19301 | 55.44970 | 1981 ft | 146 kts | 4° |
| 2026-04-21 11:22 | 25.20301 | 55.45059 | 2006 ft | 145 kts | 2° |
| 2026-04-21 11:23 | 25.21311 | 55.45104 | 1999 ft | 145 kts | 2° |
| 2026-04-21 11:23 | 25.22301 | 55.45150 | 2011 ft | 141 kts | 2° |
| 2026-04-21 11:23 | 25.23275 | 55.45195 | 1989 ft | 141 kts | 2° |
| 2026-04-21 11:23 | 25.24277 | 55.45231 | 2019 ft | 148 kts | 2° |
| 2026-04-21 11:24 | 25.25286 | 55.45380 | 1977 ft | 144 kts | 22° |
| 2026-04-21 11:24 | 25.26161 | 55.45945 | 2006 ft | 149 kts | 32° |
| 2026-04-21 11:24 | 25.27012 | 55.46592 | 1999 ft | 147 kts | 32° |
| 2026-04-21 11:24 | 25.27849 | 55.47216 | 1999 ft | 145 kts | 32° |
| 2026-04-21 11:25 | 25.28688 | 55.47839 | 2004 ft | 146 kts | 32° |
| 2026-04-21 11:25 | 25.29531 | 55.48476 | 1999 ft | 147 kts | 37° |
| 2026-04-21 11:25 | 25.30004 | 55.49448 | 2008 ft | 152 kts | 80° |
| 2026-04-21 11:25 | 25.29753 | 55.50586 | 1992 ft | 158 kts | 123° |
| 2026-04-21 11:26 | 25.28819 | 55.51229 | 2010 ft | 164 kts | 164° |
| 2026-04-21 11:26 | 25.27707 | 55.51593 | 2017 ft | 169 kts | 160° |
| 2026-04-21 11:26 | 25.26599 | 55.52009 | 2005 ft | 168 kts | 160° |
| 2026-04-21 11:26 | 25.25502 | 55.52411 | 1966 ft | 164 kts | 160° |
| 2026-04-21 11:27 | 25.24412 | 55.52807 | 1902 ft | 166 kts | 160° |
| 2026-04-21 11:27 | 25.23315 | 55.53202 | 1801 ft | 165 kts | 160° |
| 2026-04-21 11:27 | 25.22227 | 55.53589 | 1675 ft | 163 kts | 160° |
| 2026-04-21 11:27 | 25.21148 | 55.53972 | 1626 ft | 164 kts | 160° |
| 2026-04-21 11:28 | 25.20041 | 55.54365 | 1584 ft | 179 kts | 160° |
| 2026-04-21 11:28 | 25.18835 | 55.54796 | 1554 ft | 178 kts | 161° |
| 2026-04-21 11:28 | 25.17689 | 55.54986 | 1478 ft | 164 kts | 193° |
| 2026-04-21 11:28 | 25.16776 | 55.54348 | 1491 ft | 155 kts | 234° |
| 2026-04-21 11:29 | 25.15999 | 55.53485 | 1514 ft | 162 kts | 225° |
| 2026-04-21 11:29 | 25.15469 | 55.52451 | 1480 ft | 152 kts | 270° |
| 2026-04-21 11:29 | 25.15826 | 55.51431 | 1506 ft | 144 kts | 322° |
| 2026-04-21 11:29 | 25.16634 | 55.50774 | 1525 ft | 149 kts | 324° |
| 2026-04-21 11:30 | 25.17376 | 55.49994 | 1498 ft | 145 kts | 315° |
| 2026-04-21 11:30 | 25.18010 | 55.49143 | 1496 ft | 145 kts | 311° |
| 2026-04-21 11:30 | 25.18593 | 55.48311 | 1491 ft | 149 kts | 310° |
| 2026-04-21 11:30 | 25.18779 | 55.48043 | 1504 ft | 150 kts | 309° |
| 2026-04-21 11:31 | 25.19382 | 55.47078 | 1513 ft | 155 kts | 306° |
| 2026-04-21 11:31 | 25.19954 | 55.46071 | 1390 ft | 154 kts | 305° |
| 2026-04-21 11:31 | 25.20492 | 55.45103 | 1217 ft | 147 kts | 305° |
| 2026-04-21 11:31 | 25.21016 | 55.44153 | 1030 ft | 144 kts | 305° |
| 2026-04-21 11:32 | 25.21544 | 55.43204 | 842 ft | 144 kts | 304° |
| 2026-04-21 11:32 | 25.22073 | 55.42248 | 665 ft | 148 kts | 303° |
| 2026-04-21 11:32 | 25.22604 | 55.41283 | 462 ft | 144 kts | 302° |
| 2026-04-21 11:32 | 25.23115 | 55.40359 | 272 ft | 141 kts | 302° |
| 2026-04-21 11:33 | 25.23649 | 55.39428 | 111 ft | 144 kts | 299° |
| 2026-04-21 11:33 | 25.24127 | 55.38527 | 55 ft | 116 kts | 300° |
| 2026-04-21 11:33 | 25.24449 | 55.37941 | 46 ft | 63 kts | 302° |
| 2026-04-21 11:33 | 25.24585 | 55.37706 | 42 ft | 10 kts | 301° |
| 2026-04-21 11:34 | 25.24599 | 55.37664 | 41 ft | 16 kts | 283° |
| 2026-04-21 11:34 | 25.24610 | 55.37553 | 40 ft | 1 kts | 275° |
| 2026-04-21 11:34 | 25.24611 | 55.37540 | 40 ft | 0 kts | 275° |
| 2026-04-21 11:34 | 25.24612 | 55.37533 | 40 ft | 2 kts | 275° |
| 2026-04-21 11:35 | 25.24613 | 55.37515 | 40 ft | 3 kts | 275° |
| 2026-04-21 11:35 | 25.24615 | 55.37486 | 40 ft | 3 kts | 275° |
| 2026-04-21 11:35 | 25.24616 | 55.37479 | 39 ft | 1 kts | 275° |
| 2026-04-21 11:35 | 25.24616 | 55.37472 | 39 ft | 1 kts | 275° |
| 2026-04-21 11:36 | 25.24617 | 55.37471 | 39 ft | 0 kts | 275° |
| 2026-04-21 11:36 | 25.24617 | 55.37463 | 39 ft | 3 kts | 275° |
| 2026-04-21 11:36 | 25.24620 | 55.37421 | 39 ft | 8 kts | 275° |
| 2026-04-21 11:37 | 25.24626 | 55.37340 | 38 ft | 13 kts | 274° |
| 2026-04-21 11:37 | 25.24643 | 55.37231 | 38 ft | 16 kts | 293° |
| 2026-04-21 11:37 | 25.24700 | 55.37114 | 37 ft | 18 kts | 301° |
| 2026-04-21 11:37 | 25.24765 | 55.36998 | 35 ft | 18 kts | 302° |
| 2026-04-21 11:38 | 25.24810 | 55.36905 | 34 ft | 8 kts | 285° |
| 2026-04-21 11:38 | 25.24780 | 55.36862 | 34 ft | 8 kts | 211° |
| 2026-04-21 11:38 | 25.24731 | 55.36829 | 34 ft | 8 kts | 211° |
| 2026-04-21 11:38 | 25.24680 | 55.36795 | 34 ft | 9 kts | 211° |
| 2026-04-21 11:39 | 25.24625 | 55.36759 | 33 ft | 10 kts | 211° |
| 2026-04-21 11:39 | 25.24566 | 55.36720 | 33 ft | 10 kts | 211° |
| 2026-04-21 11:39 | 25.24506 | 55.36677 | 33 ft | 10 kts | 218° |
| 2026-04-21 11:39 | 25.24461 | 55.36615 | 33 ft | 10 kts | 244° |
| 2026-04-21 11:40 | 25.24449 | 55.36535 | 32 ft | 11 kts | 272° |
| 2026-04-21 11:40 | 25.24476 | 55.36447 | 31 ft | 13 kts | 298° |
| 2026-04-21 11:40 | 25.24525 | 55.36354 | 30 ft | 15 kts | 301° |
| 2026-04-21 11:40 | 25.24581 | 55.36252 | 28 ft | 16 kts | 302° |
| 2026-04-21 11:41 | 25.24646 | 55.36143 | 27 ft | 18 kts | 302° |
| 2026-04-21 11:41 | 25.24701 | 55.36045 | 30 ft | 12 kts | 301° |
| 2026-04-21 11:41 | 25.24719 | 55.36012 | 29 ft | 6 kts | 301° |
| 2026-04-21 11:41 | 25.24744 | 55.35967 | 27 ft | 8 kts | 301° |
| 2026-04-21 11:42 | 25.24778 | 55.35907 | 26 ft | 10 kts | 301° |
| 2026-04-21 11:42 | 25.24818 | 55.35833 | 23 ft | 12 kts | 301° |
| 2026-04-21 11:42 | 25.24863 | 55.35753 | 23 ft | 11 kts | 302° |
| 2026-04-21 11:42 | 25.24894 | 55.35698 | 20 ft | 4 kts | 302° |
| 2026-04-21 11:43 | 25.24914 | 55.35664 | 22 ft | 6 kts | 302° |
| 2026-04-21 11:43 | 25.24931 | 55.35635 | 19 ft | 3 kts | 302° |
| 2026-04-21 11:43 | 25.24949 | 55.35617 | 18 ft | 4 kts | 336° |
| 2026-04-21 11:43 | 25.24977 | 55.35623 | 18 ft | 5 kts | 24° |
| 2026-04-21 11:44 | 25.24994 | 55.35633 | 18 ft | 5 kts | 28° |
| 2026-04-21 11:44 | 25.25009 | 55.35643 | 18 ft | 0 kts | 30° |
| 2026-04-21 11:44 | 25.25014 | 55.35646 | 18 ft | 1 kts | 31° |
| 2026-04-21 11:45 | 25.25019 | 55.35650 | 18 ft | 1 kts | 31° |
| 2026-04-21 11:45 | 25.25022 | 55.35651 | 18 ft | 0 kts | 31° |
| 2026-04-21 11:45 | 25.25023 | 55.35652 | 18 ft | 0 kts | 31° |
| 2026-04-21 11:54 | 25.19343 | 55.47144 | 1510 ft | 155 kts | 306° |
| 2026-04-21 11:54 | 25.19916 | 55.46138 | 1413 ft | 154 kts | 305° |
| 2026-04-21 11:54 | 25.20463 | 55.45156 | 1224 ft | 147 kts | 305° |
| 2026-04-21 11:54 | 25.20987 | 55.44205 | 1036 ft | 144 kts | 305° |
| 2026-04-21 11:55 | 25.21516 | 55.43253 | 846 ft | 144 kts | 304° |
| 2026-04-21 11:55 | 25.22044 | 55.42301 | 682 ft | 148 kts | 303° |
| 2026-04-21 11:55 | 25.22575 | 55.41335 | 474 ft | 144 kts | 302° |
| 2026-04-21 11:55 | 25.23087 | 55.40408 | 282 ft | 141 kts | 301° |
| 2026-04-21 11:56 | 25.23622 | 55.39479 | 121 ft | 144 kts | 300° |
| 2026-04-21 11:56 | 25.24105 | 55.38569 | 59 ft | 119 kts | 300° |
| 2026-04-21 11:56 | 25.24436 | 55.37963 | 51 ft | 65 kts | 302° |
| 2026-04-21 11:56 | 25.25023 | 55.35652 | 20 ft | 0 kts | 31° |